Aviation Digital Data Service (ADDS)

Output produced by METARs form (0309 UTC 18 August 2017)
found at http://www.aviationweather.gov/adds/metars/
 
MNBL 172300Z 02004KT 5000 -DZ SCT016CB SCT060 26/24 Q1011 CB 4/C
MNBL 172320Z 1800/1824 03004KT 6000 RA/DZ SCT018TCU SCT070 
     BECMG 1809/1812 5000 BR OVC016TCU 
     BECMG 1813/1820 08012KT RSRA/RA FEW016CB BKN018TCU
       
MNMG 180200Z 16006KT 9999 FEW020 SCT300 27/24 Q1010 A29/85 NOSIG
MNMG 172320Z 1800/1824 12006KT 9999 TS FEW020CB SCT070 
     BECMG 1806/1812 00000KT SCT020 
     BECMG 1813/1819 09014KT FEW022 SCT300 
     BECMG 1820/1900 08016G25KT 6000 TSRA/RA FEW020CB BKN022
       
MNPC 172300Z 06008KT 7000 SCT016 SCT300 30/25 Q1011 HZ
MNPC 172320Z 1800/1824 33004KT 6000 VCRA/DZ BKN016TCU 
     BECMG 1809/1812 5000 BR 
     BECMG 1813/1820 08012KT 6000 TSRA FEW014CB BKN016TCU